createdAt,value
2023-03-13T00:02:06.124Z,99001.13
2023-03-13T00:04:33.291Z,98996.03
2023-03-13T00:07:00.542Z,98990.78
2023-03-13T00:09:28.056Z,98991.75
2023-03-13T00:11:55.482Z,98999.44
2023-03-13T00:14:25.026Z,99002.13
2023-03-13T00:16:53.507Z,98993.53
2023-03-13T00:19:20.957Z,99005.06
2023-03-13T00:21:49.735Z,99000.59
2023-03-13T00:24:16.984Z,98988.41
2023-03-13T00:26:44.206Z,98998.88
2023-03-13T00:29:12.275Z,99001.44
2023-03-13T00:31:39.779Z,99005.59
2023-03-13T00:34:08.197Z,99001.28
2023-03-13T00:36:36.417Z,99007.47
2023-03-13T00:39:06.494Z,99000.81
2023-03-13T00:41:34.446Z,98998.34
2023-03-13T00:44:02.578Z,98991.81
2023-03-13T00:46:31.402Z,99009.56
2023-03-13T00:49:01.289Z,99014.81
2023-03-13T00:51:29.607Z,99011.59
2023-03-13T00:54:02.636Z,99012.34
2023-03-13T00:56:30.276Z,99009.59
2023-03-13T00:58:57.633Z,99010.16
2023-03-13T01:01:27.780Z,99008.38
2023-03-13T01:04:07.020Z,99017.03
2023-03-13T01:06:37.108Z,99008.75
2023-03-13T01:09:06.046Z,98999.97
2023-03-13T01:11:37.317Z,99009.22
2023-03-13T01:14:08.602Z,99010.59
2023-03-13T01:16:37.453Z,99014.13
2023-03-13T01:19:11.817Z,99020.28
2023-03-13T01:21:40.920Z,99020.69
2023-03-13T01:24:09.335Z,99020.59
2023-03-13T01:26:37.560Z,99018.78
2023-03-13T01:29:05.509Z,99010.94
2023-03-13T01:31:35.541Z,99010.88
2023-03-13T01:34:05.368Z,99012.50
2023-03-13T01:36:33.270Z,99006.53
2023-03-13T01:39:01.765Z,99002.22
2023-03-13T01:41:31.528Z,99006.41
2023-03-13T01:43:59.423Z,99004.59
2023-03-13T01:46:31.510Z,99015.09
2023-03-13T01:49:04.746Z,99016.81
2023-03-13T01:51:40.309Z,99015.09
2023-03-13T01:54:25.131Z,99021.31
2023-03-13T01:57:03.361Z,99019.50
2023-03-13T01:59:40.845Z,99019.41
2023-03-13T02:02:16.548Z,99020.34
2023-03-13T02:04:48.726Z,99009.25
2023-03-13T02:07:21.703Z,99010.00
2023-03-13T02:09:52.887Z,99016.22
2023-03-13T02:12:37.299Z,99015.19
2023-03-13T02:15:13.776Z,99009.00
2023-03-13T02:17:42.248Z,99019.63
2023-03-13T02:20:14.350Z,99013.56
2023-03-13T02:22:50.175Z,99012.50
2023-03-13T02:25:52.657Z,99008.72
2023-03-13T02:28:33.577Z,99019.25
2023-03-13T02:31:01.942Z,99019.41
2023-03-13T02:33:35.929Z,99014.09
2023-03-13T02:36:05.567Z,99015.59
2023-03-13T02:38:37.195Z,99007.66
2023-03-13T02:41:06.750Z,99012.91
2023-03-13T02:43:36.756Z,99015.41
2023-03-13T02:46:10.996Z,99013.50
2023-03-13T02:48:44.408Z,99022.16
2023-03-13T02:51:30.063Z,99014.25
2023-03-13T02:54:06.157Z,99015.88
2023-03-13T02:56:37.186Z,99012.22
2023-03-13T02:59:04.988Z,99014.88
2023-03-13T03:01:33.085Z,99012.19
2023-03-13T03:04:00.230Z,99012.06
2023-03-13T03:06:27.667Z,99014.75
2023-03-13T03:08:55.064Z,99016.44
2023-03-13T03:11:22.720Z,99023.53
2023-03-13T03:13:50.149Z,99014.81
2023-03-13T03:16:20.961Z,99012.25
2023-03-13T03:18:48.370Z,99017.44
2023-03-13T03:21:15.943Z,99017.66
2023-03-13T03:23:45.541Z,99022.94
2023-03-13T03:26:14.851Z,99019.44
2023-03-13T03:28:42.649Z,99017.69
2023-03-13T03:31:13.356Z,99022.94
2023-03-13T03:33:41.983Z,99024.56
2023-03-13T03:36:15.294Z,99017.59
2023-03-13T03:38:43.590Z,99023.63
2023-03-13T03:41:14.407Z,99020.03
2023-03-13T03:43:42.214Z,99013.97
2023-03-13T03:46:10.201Z,99010.44
2023-03-13T03:48:38.046Z,99015.50
2023-03-13T03:51:06.046Z,99015.31
2023-03-13T03:53:34.494Z,99009.97
2023-03-13T03:56:02.924Z,99004.63
2023-03-13T03:58:30.557Z,99015.13
2023-03-13T04:00:58.640Z,99009.69
2023-03-13T04:03:26.503Z,99007.16
2023-03-13T04:05:56.016Z,99006.94
2023-03-13T04:08:23.624Z,98999.91
2023-03-13T04:10:51.334Z,99004.22
2023-03-13T04:13:18.795Z,99009.38
2023-03-13T04:15:46.183Z,98997.06
2023-03-13T04:18:13.569Z,99006.50
2023-03-13T04:20:47.008Z,99001.28
2023-03-13T04:23:15.178Z,98989.06
2023-03-13T04:25:42.654Z,98990.59
2023-03-13T04:28:11.043Z,98982.63
2023-03-13T04:30:38.683Z,98998.16
2023-03-13T04:33:06.026Z,98992.03
2023-03-13T04:35:33.783Z,98989.31
2023-03-13T04:38:02.819Z,98987.41
2023-03-13T04:40:36.090Z,98987.28
2023-03-13T04:43:05.483Z,98986.44
2023-03-13T04:45:39.194Z,98977.59
2023-03-13T04:48:06.807Z,98982.88
2023-03-13T04:50:34.110Z,98974.22
2023-03-13T04:53:01.578Z,98976.00
2023-03-13T04:55:29.062Z,98974.91
2023-03-13T04:57:57.436Z,98967.00
2023-03-13T05:00:25.588Z,98972.28
2023-03-13T05:02:54.033Z,98973.13
2023-03-13T05:05:21.598Z,98967.19
2023-03-13T05:07:50.087Z,98947.97
2023-03-13T05:10:17.476Z,98943.63
2023-03-13T05:12:44.549Z,98951.59
2023-03-13T05:15:13.998Z,98955.78
2023-03-13T05:17:42.491Z,98942.81
2023-03-13T05:20:12.351Z,98944.59
2023-03-13T05:22:39.482Z,98946.34
2023-03-13T05:25:07.073Z,98943.66
2023-03-13T05:27:34.421Z,98933.22
2023-03-13T05:30:02.927Z,98933.28
2023-03-13T05:32:30.359Z,98922.72
2023-03-13T05:34:58.766Z,98927.91
2023-03-13T05:37:27.331Z,98933.16
2023-03-13T05:39:55.697Z,98930.72
2023-03-13T05:42:22.828Z,98933.38
2023-03-13T05:44:49.957Z,98934.16
2023-03-13T05:47:19.252Z,98942.97
2023-03-13T05:49:47.811Z,98939.44
2023-03-13T05:52:15.291Z,98937.00
2023-03-13T05:54:42.414Z,98944.69
2023-03-13T05:57:09.534Z,98945.53
2023-03-13T05:59:36.904Z,98948.88
2023-03-13T06:02:04.538Z,98936.53
2023-03-13T06:04:31.623Z,98934.66
2023-03-13T06:06:58.809Z,98935.34
2023-03-13T06:09:26.319Z,98936.25
2023-03-13T06:11:53.791Z,98937.13
2023-03-13T06:14:21.189Z,98930.00
2023-03-13T06:16:48.611Z,98929.06
2023-03-13T06:19:17.141Z,98923.56
2023-03-13T06:21:44.599Z,98912.91
2023-03-13T06:24:11.964Z,98911.16
2023-03-13T06:26:39.047Z,98906.69
2023-03-13T06:29:08.379Z,98908.38
2023-03-13T06:31:36.099Z,98907.44
2023-03-13T06:34:05.499Z,98893.34
2023-03-13T06:36:33.040Z,98899.16
2023-03-13T06:39:00.242Z,98892.91
2023-03-13T06:41:28.047Z,98886.59
2023-03-13T06:43:56.586Z,98898.41
2023-03-13T06:46:25.565Z,98897.31
2023-03-13T06:48:53.869Z,98885.66
2023-03-13T06:51:22.761Z,98883.56
2023-03-13T06:53:52.637Z,98872.69
2023-03-13T06:56:22.009Z,98883.72
2023-03-13T06:58:50.913Z,98880.78
2023-03-13T07:01:18.656Z,98879.53
2023-03-13T07:03:47.920Z,98878.19
2023-03-13T07:06:16.172Z,98886.69
2023-03-13T07:08:44.471Z,98879.38
2023-03-13T07:11:14.743Z,98877.44
2023-03-13T07:13:43.310Z,98879.03
2023-03-13T07:16:13.903Z,98897.28
2023-03-13T07:18:47.504Z,98881.44
2023-03-13T07:21:15.606Z,98876.56
2023-03-13T07:23:44.581Z,98883.44
2023-03-13T07:26:17.967Z,98875.34
2023-03-13T07:28:45.232Z,98880.31
2023-03-13T07:31:19.835Z,98864.72
2023-03-13T07:33:48.269Z,98864.72
2023-03-13T07:36:17.071Z,98870.13
2023-03-13T07:38:47.713Z,98863.81
2023-03-13T07:41:15.096Z,98859.00
2023-03-13T07:43:42.724Z,98861.16
2023-03-13T07:46:13.198Z,98855.84
2023-03-13T07:48:43.401Z,98869.34
2023-03-13T07:51:23.283Z,98847.09
2023-03-13T07:53:53.279Z,98851.03
2023-03-13T07:56:24.097Z,98853.63
2023-03-13T07:58:51.625Z,98839.19
2023-03-13T08:01:24.263Z,98839.41
2023-03-13T08:03:54.829Z,98835.72
2023-03-13T08:06:24.541Z,98825.69
2023-03-13T08:08:52.362Z,98828.34
2023-03-13T08:11:27.300Z,98832.28
2023-03-13T08:13:55.689Z,98835.13
2023-03-13T08:16:28.805Z,98842.22
2023-03-13T08:18:58.762Z,98826.06
2023-03-13T08:21:32.164Z,98816.78
2023-03-13T08:24:02.883Z,98826.56
2023-03-13T08:26:32.366Z,98824.81
2023-03-13T08:29:02.916Z,98816.66
2023-03-13T08:31:38.954Z,98816.28
2023-03-13T08:34:06.294Z,98821.63
2023-03-13T08:36:36.868Z,98809.94
2023-03-13T08:39:07.744Z,98797.72
2023-03-13T08:41:37.416Z,98788.13
2023-03-13T08:44:05.991Z,98788.50
2023-03-13T08:46:35.367Z,98782.06
2023-03-13T08:49:03.743Z,98785.63
2023-03-13T08:51:32.233Z,98791.03
2023-03-13T08:53:59.799Z,98790.88
2023-03-13T08:56:30.624Z,98784.25
2023-03-13T08:59:00.431Z,98798.25
2023-03-13T09:01:30.412Z,98790.69
2023-03-13T09:03:58.000Z,98781.25
2023-03-13T09:06:27.376Z,98791.84
2023-03-13T09:08:57.514Z,98783.34
2023-03-13T09:11:30.743Z,98779.63
2023-03-13T09:14:01.165Z,98783.28
2023-03-13T09:16:30.241Z,98774.00
2023-03-13T09:18:58.387Z,98791.84
2023-03-13T09:21:31.627Z,98777.72
2023-03-13T09:24:00.304Z,98777.38
2023-03-13T09:26:28.228Z,98766.44
2023-03-13T09:28:55.890Z,98762.78
2023-03-13T09:31:31.921Z,98750.78
2023-03-13T09:34:00.266Z,98766.84
2023-03-13T09:36:28.473Z,98758.75
2023-03-13T09:38:57.921Z,98745.44
2023-03-13T09:41:43.355Z,98752.59
2023-03-13T09:44:23.466Z,98749.44
2023-03-13T09:46:54.551Z,98737.81
2023-03-13T09:49:47.032Z,98735.22
2023-03-13T09:52:32.289Z,98719.69
2023-03-13T09:55:01.992Z,98727.56
2023-03-13T09:57:38.458Z,98724.47
2023-03-13T10:00:14.061Z,98713.13
2023-03-13T10:03:13.103Z,98704.72
2023-03-13T10:05:49.710Z,98700.53
2023-03-13T10:08:20.189Z,98698.00
2023-03-13T10:10:50.810Z,98667.59
2023-03-13T10:13:42.532Z,98678.81
2023-03-13T10:16:18.239Z,98676.94
2023-03-13T10:18:49.481Z,98670.69
2023-03-13T10:21:22.566Z,98665.00
2023-03-13T10:24:13.325Z,98659.88
2023-03-13T10:26:40.683Z,98658.75
2023-03-13T10:29:22.133Z,98651.00
2023-03-13T10:32:05.563Z,98647.88
2023-03-13T10:34:59.259Z,98635.59
2023-03-13T10:37:40.839Z,98632.47
2023-03-13T10:40:25.454Z,98629.47
2023-03-13T10:43:02.647Z,98631.28
2023-03-13T10:45:35.768Z,98629.09
2023-03-13T10:48:12.837Z,98613.50
2023-03-13T10:50:44.969Z,98630.06
2023-03-13T10:53:21.574Z,98629.88
2023-03-13T10:55:49.896Z,98624.78
2023-03-13T10:58:54.822Z,98622.59
2023-03-13T11:01:23.298Z,98619.47
2023-03-13T11:03:53.428Z,98625.53
2023-03-13T11:06:21.948Z,98622.22
2023-03-13T11:08:49.390Z,98620.78
2023-03-13T11:11:20.890Z,98607.53
2023-03-13T11:13:48.266Z,98628.91
2023-03-13T11:16:21.672Z,98597.25
2023-03-13T11:19:08.505Z,98586.44
2023-03-13T11:21:44.094Z,98592.97
2023-03-13T11:24:27.344Z,98590.22
2023-03-13T11:27:08.404Z,98581.03
2023-03-13T11:29:54.312Z,98558.38
2023-03-13T11:32:31.792Z,98560.13
2023-03-13T11:35:07.834Z,98556.06
2023-03-13T11:37:40.001Z,98548.41
2023-03-13T11:40:37.285Z,98558.41
2023-03-13T11:43:25.657Z,98568.88
2023-03-13T11:46:19.921Z,98570.38
2023-03-13T11:49:12.727Z,98561.97
2023-03-13T11:52:09.147Z,98537.50
2023-03-13T11:55:01.452Z,98547.53
2023-03-13T11:58:13.076Z,98545.47
2023-03-13T12:00:51.388Z,98552.13
2023-03-13T12:03:31.787Z,98528.88
2023-03-13T12:06:01.097Z,98545.25
2023-03-13T12:08:46.571Z,98540.41
2023-03-13T12:12:03.935Z,98527.69
2023-03-13T12:14:53.941Z,98530.22
2023-03-13T12:17:29.455Z,98514.94
2023-03-13T12:20:18.833Z,98502.09
2023-03-13T12:22:57.440Z,98511.25
2023-03-13T12:25:30.822Z,98510.03
2023-03-13T12:28:35.745Z,98501.16
2023-03-13T12:31:18.294Z,98512.50
2023-03-13T12:34:03.679Z,98519.28
2023-03-13T12:36:53.602Z,98525.53
2023-03-13T12:39:32.434Z,98510.69
2023-03-13T12:42:24.004Z,98520.06
2023-03-13T12:44:51.739Z,98507.66
2023-03-13T12:47:33.723Z,98508.53
2023-03-13T12:50:07.352Z,98507.75
2023-03-13T12:52:54.364Z,98498.03
2023-03-13T12:55:37.941Z,98509.28
2023-03-13T12:58:29.106Z,98502.28
2023-03-13T13:01:04.591Z,98504.53
2023-03-13T13:03:36.730Z,98496.59
2023-03-13T13:06:13.790Z,98497.94
2023-03-13T13:08:43.109Z,98496.25
2023-03-13T13:11:44.191Z,98505.03
2023-03-13T13:14:17.594Z,98505.69
2023-03-13T13:16:48.791Z,98495.28
2023-03-13T13:19:25.370Z,98501.25
2023-03-13T13:22:31.005Z,98508.41
2023-03-13T13:25:01.582Z,98505.69
2023-03-13T13:27:37.241Z,98496.69
2023-03-13T13:30:19.766Z,98491.50
2023-03-13T13:32:48.930Z,98483.47
2023-03-13T13:35:21.210Z,98478.19
2023-03-13T13:37:49.922Z,98474.13
2023-03-13T13:40:20.473Z,98476.00
2023-03-13T13:42:56.053Z,98469.56
2023-03-13T13:45:31.447Z,98478.25
2023-03-13T13:48:19.935Z,98462.03
2023-03-13T13:51:12.271Z,98469.59
2023-03-13T13:53:56.213Z,98479.88
2023-03-13T13:56:29.576Z,98477.16
2023-03-13T13:59:05.582Z,98485.47
2023-03-13T14:01:33.985Z,98455.03
2023-03-13T14:04:20.112Z,98460.50
2023-03-13T14:06:52.540Z,98450.53
2023-03-13T14:09:54.980Z,98445.50
2023-03-13T14:12:35.433Z,98450.59
2023-03-13T14:15:27.043Z,98455.22
2023-03-13T14:18:22.228Z,98462.22
2023-03-13T14:21:15.706Z,98467.31
2023-03-13T14:23:58.455Z,98455.59
2023-03-13T14:26:29.568Z,98456.13
2023-03-13T14:28:59.687Z,98439.22
2023-03-13T14:31:36.553Z,98447.06
2023-03-13T14:34:07.216Z,98440.06
2023-03-13T14:37:14.911Z,98455.56
2023-03-13T14:39:46.784Z,98436.94
2023-03-13T14:42:19.139Z,98440.44
2023-03-13T14:44:50.000Z,98413.00
2023-03-13T14:47:21.067Z,98432.47
2023-03-13T14:49:48.910Z,98434.19
2023-03-13T14:52:26.816Z,98443.06
2023-03-13T14:55:04.729Z,98439.78
2023-03-13T14:57:33.029Z,98436.28
2023-03-13T15:00:30.570Z,98435.81
2023-03-13T15:03:22.065Z,98419.94
2023-03-13T15:06:16.417Z,98424.78
2023-03-13T15:08:48.149Z,98430.81
2023-03-13T15:11:27.776Z,98436.94
2023-03-13T15:13:56.556Z,98431.59
2023-03-13T15:16:26.276Z,98425.34
2023-03-13T15:18:55.151Z,98421.19
2023-03-13T15:21:31.432Z,98417.88
2023-03-13T15:24:15.810Z,98422.13
2023-03-13T15:26:43.199Z,98417.59
2023-03-13T15:29:13.906Z,98417.41
2023-03-13T15:31:42.157Z,98413.78
2023-03-13T15:34:15.198Z,98397.59
2023-03-13T15:36:43.139Z,98419.66
2023-03-13T15:39:15.983Z,98403.00
2023-03-13T15:41:43.373Z,98393.28
2023-03-13T15:44:10.771Z,98401.75
2023-03-13T15:46:38.836Z,98394.97
2023-03-13T15:49:11.593Z,98395.63
2023-03-13T15:51:44.871Z,98409.69
2023-03-13T15:54:12.258Z,98402.81
2023-03-13T15:56:40.223Z,98403.47
2023-03-13T15:59:16.496Z,98412.25
2023-03-13T16:01:45.445Z,98415.88
2023-03-13T16:04:13.910Z,98412.47
2023-03-13T16:06:43.080Z,98425.56
2023-03-13T16:09:12.585Z,98415.88
2023-03-13T16:11:41.954Z,98419.06
2023-03-13T16:14:09.404Z,98417.91
2023-03-13T16:16:37.826Z,98412.19
2023-03-13T16:19:05.436Z,98413.94
2023-03-13T16:21:35.457Z,98419.56
2023-03-13T16:24:02.792Z,98412.84
2023-03-13T16:26:31.316Z,98396.53
2023-03-13T16:29:00.674Z,98394.81
2023-03-13T16:31:33.859Z,98402.75
2023-03-13T16:34:02.523Z,98398.72
2023-03-13T16:36:33.311Z,98396.94
2023-03-13T16:39:03.402Z,98393.53
2023-03-13T16:41:30.845Z,98402.53
2023-03-13T16:44:04.394Z,98412.06
2023-03-13T16:46:59.137Z,98400.72
2023-03-13T16:49:31.836Z,98397.72
2023-03-13T16:51:59.334Z,98380.44
2023-03-13T16:54:34.300Z,98380.00
2023-03-13T16:57:04.696Z,98374.16
2023-03-13T16:59:32.492Z,98377.63
2023-03-13T17:01:59.713Z,98370.28
2023-03-13T17:04:26.927Z,98385.31
2023-03-13T17:06:56.865Z,98369.66
2023-03-13T17:09:25.305Z,98356.41
2023-03-13T17:11:52.766Z,98353.97
2023-03-13T17:14:21.405Z,98341.59
2023-03-13T17:16:50.020Z,98333.13
2023-03-13T17:19:17.828Z,98340.94
2023-03-13T17:21:45.702Z,98333.97
2023-03-13T17:24:14.402Z,98325.28
2023-03-13T17:26:48.217Z,98324.44
2023-03-13T17:29:19.590Z,98321.88
2023-03-13T17:31:47.659Z,98317.34
2023-03-13T17:34:17.296Z,98312.34
2023-03-13T17:36:50.884Z,98317.91
2023-03-13T17:39:19.705Z,98316.53
2023-03-13T17:41:47.756Z,98325.31
2023-03-13T17:44:15.182Z,98333.63
2023-03-13T17:46:47.964Z,98315.69
2023-03-13T17:49:17.743Z,98318.41
2023-03-13T17:51:46.675Z,98318.88
2023-03-13T17:54:16.040Z,98307.25
2023-03-13T17:56:47.781Z,98305.34
2023-03-13T17:59:20.056Z,98300.00
2023-03-13T18:01:48.321Z,98292.41
2023-03-13T18:04:15.956Z,98287.84
2023-03-13T18:06:45.917Z,98291.84
2023-03-13T18:09:22.262Z,98284.47
2023-03-13T18:11:56.071Z,98291.84
2023-03-13T18:14:26.157Z,98284.25
2023-03-13T18:16:57.985Z,98274.25
2023-03-13T18:19:28.749Z,98266.75
2023-03-13T18:21:57.071Z,98274.06
2023-03-13T18:24:26.102Z,98279.28
2023-03-13T18:26:56.834Z,98284.38
2023-03-13T18:29:30.722Z,98278.97
2023-03-13T18:32:01.325Z,98278.66
2023-03-13T18:34:30.313Z,98274.63
2023-03-13T18:37:04.098Z,98270.50
2023-03-13T18:39:33.553Z,98268.03
2023-03-13T18:42:02.775Z,98259.69
2023-03-13T18:44:31.453Z,98250.44
2023-03-13T18:46:59.026Z,98249.03
2023-03-13T18:49:33.176Z,98240.06
2023-03-13T18:52:02.582Z,98241.22
2023-03-13T18:54:30.746Z,98237.91
2023-03-13T18:56:58.681Z,98239.81
2023-03-13T18:59:27.332Z,98239.72
2023-03-13T19:01:55.521Z,98226.59
2023-03-13T19:04:23.338Z,98228.94
2023-03-13T19:06:51.905Z,98235.63
2023-03-13T19:09:42.272Z,98232.84
2023-03-13T19:12:13.474Z,98242.72
2023-03-13T19:14:44.817Z,98234.22
2023-03-13T19:17:29.066Z,98223.44
2023-03-13T19:19:58.605Z,98226.94
2023-03-13T19:22:36.072Z,98233.28
2023-03-13T19:25:05.201Z,98232.44
2023-03-13T19:27:38.058Z,98227.56
2023-03-13T19:30:17.869Z,98223.16
2023-03-13T19:32:59.466Z,98215.94
2023-03-13T19:35:28.017Z,98225.84
2023-03-13T19:37:56.163Z,98226.22
2023-03-13T19:40:30.504Z,98236.31
2023-03-13T19:42:58.705Z,98237.25
2023-03-13T19:45:28.028Z,98242.25
2023-03-13T19:47:56.823Z,98239.84
2023-03-13T19:50:32.404Z,98230.53
2023-03-13T19:53:08.274Z,98227.25
2023-03-13T19:55:38.840Z,98219.59
2023-03-13T19:58:09.719Z,98229.81
2023-03-13T20:00:37.907Z,98229.38
2023-03-13T20:03:07.738Z,98208.31
2023-03-13T20:05:37.597Z,98218.19
2023-03-13T20:08:18.443Z,98213.81
2023-03-13T20:10:47.182Z,98220.81
2023-03-13T20:13:15.825Z,98227.19
2023-03-13T20:15:44.332Z,98235.28
2023-03-13T20:18:12.676Z,98229.53
2023-03-13T20:20:41.991Z,98230.88
2023-03-13T20:23:10.228Z,98220.31
2023-03-13T20:25:39.220Z,98215.22
2023-03-13T20:28:07.974Z,98213.09
2023-03-13T20:30:40.829Z,98219.75
2023-03-13T20:33:11.839Z,98215.00
2023-03-13T20:35:41.395Z,98209.19
2023-03-13T20:38:12.182Z,98200.22
2023-03-13T20:40:40.073Z,98196.75
2023-03-13T20:43:08.089Z,98184.69
2023-03-13T20:45:40.022Z,98181.44
2023-03-13T20:48:08.934Z,98183.34
2023-03-13T20:50:37.073Z,98180.69
2023-03-13T20:53:06.576Z,98171.78
2023-03-13T20:55:36.985Z,98163.13
2023-03-13T20:58:05.896Z,98151.38
2023-03-13T21:00:36.222Z,98157.63
2023-03-13T21:03:04.109Z,98157.00
2023-03-13T21:05:33.869Z,98160.91
2023-03-13T21:08:02.257Z,98161.03
2023-03-13T21:10:32.851Z,98157.59
2023-03-13T21:13:02.133Z,98147.63
2023-03-13T21:15:30.085Z,98131.97
2023-03-13T21:17:57.881Z,98124.31
2023-03-13T21:20:32.139Z,98121.16
2023-03-13T21:22:59.800Z,98131.22
2023-03-13T21:25:27.332Z,98126.56
2023-03-13T21:27:55.043Z,98130.38
2023-03-13T21:30:22.905Z,98116.72
2023-03-13T21:32:50.510Z,98101.41
2023-03-13T21:35:18.413Z,98107.09
2023-03-13T21:37:46.619Z,98099.47
2023-03-13T21:40:14.451Z,98092.78
2023-03-13T21:42:41.932Z,98093.53
2023-03-13T21:45:10.130Z,98092.56
2023-03-13T21:47:38.573Z,98098.28
2023-03-13T21:50:08.698Z,98094.00
2023-03-13T21:52:40.730Z,98089.25
2023-03-13T21:55:14.671Z,98104.63
2023-03-13T21:57:42.343Z,98108.84
2023-03-13T22:00:10.733Z,98100.19
2023-03-13T22:02:39.371Z,98094.44
2023-03-13T22:05:08.700Z,98106.31
2023-03-13T22:07:36.836Z,98103.78
2023-03-13T22:10:06.518Z,98099.84
2023-03-13T22:12:34.110Z,98091.06
2023-03-13T22:15:02.411Z,98099.34
2023-03-13T22:17:35.588Z,98094.56
2023-03-13T22:20:03.109Z,98091.06
2023-03-13T22:22:33.093Z,98077.63
2023-03-13T22:25:00.522Z,98080.19
2023-03-13T22:27:27.936Z,98076.16
2023-03-13T22:29:57.272Z,98070.53
2023-03-13T22:32:26.105Z,98069.03
2023-03-13T22:34:53.530Z,98070.13
2023-03-13T22:37:22.662Z,98071.06
2023-03-13T22:39:54.203Z,98069.66
2023-03-13T22:42:28.522Z,98073.91
2023-03-13T22:44:56.152Z,98066.81
2023-03-13T22:47:26.173Z,98057.69
2023-03-13T22:49:59.673Z,98046.47
2023-03-13T22:52:31.200Z,98045.06
2023-03-13T22:54:58.802Z,98047.19
2023-03-13T22:57:29.413Z,98034.59
2023-03-13T23:00:02.901Z,98034.94
2023-03-13T23:02:30.318Z,98034.66
2023-03-13T23:04:58.868Z,98031.31
2023-03-13T23:07:29.992Z,98019.03
2023-03-13T23:09:59.164Z,98022.16
2023-03-13T23:12:27.095Z,98009.13
2023-03-13T23:14:56.044Z,98008.59
2023-03-13T23:17:23.265Z,98001.69
2023-03-13T23:19:50.629Z,97971.38
2023-03-13T23:22:22.148Z,97970.06
2023-03-13T23:24:49.650Z,97946.22
2023-03-13T23:27:17.101Z,97954.38
2023-03-13T23:29:44.552Z,97943.34
2023-03-13T23:32:12.354Z,97945.88
2023-03-13T23:34:40.477Z,97941.75
2023-03-13T23:37:08.003Z,97932.53
2023-03-13T23:39:36.496Z,97913.75
2023-03-13T23:42:03.959Z,97906.03
2023-03-13T23:44:31.822Z,97891.38
2023-03-13T23:47:00.370Z,97892.69
2023-03-13T23:49:28.865Z,97892.88
2023-03-13T23:51:56.218Z,97885.72
2023-03-13T23:54:23.719Z,97885.50
2023-03-13T23:56:51.201Z,97874.31
2023-03-13T23:59:19.766Z,97880.44
